Time;durP1;ratioP1;P1;durP2;ratioP2;P2;SDS_P1;SDS_P2;PMS_P1;PMS_P2;Temp;Humidity;BMP_temperature;BMP_pressure;BME280_temperature;BME280_humidity;BME280_pressure;Samples;Min_cycle;Max_cycle;Signal;HPM_P1;HPM_P2
2022/01/02 00:01:00;;;;;;;30.45;20.60;;;;;;;-1.55;100.00;101922.09;5039888;28;20057;-70
2022/01/02 00:03:52;;;;;;;32.50;19.02;;;;;;;-1.30;100.00;101929.31;5038067;28;20045;-71
2022/01/02 00:06:45;;;;;;;35.20;19.77;;;;;;;-1.34;100.00;101912.72;5037730;28;20480;-71
2022/01/02 00:09:37;;;;;;;34.72;19.85;;;;;;;-1.19;100.00;101914.75;5029750;28;20050;-71
2022/01/02 00:12:28;;;;;;;31.70;19.08;;;;;;;-1.13;100.00;101906.00;5025194;28;20045;-70
2022/01/02 00:15:15;;;;;;;31.42;20.58;;;;;;;-0.97;100.00;101903.28;5039955;28;20057;-71
2022/01/02 00:18:09;;;;;;;31.83;20.05;;;;;;;-1.03;100.00;101897.78;5040762;28;20053;-71
2022/01/02 00:20:59;;;;;;;31.88;19.88;;;;;;;-1.15;100.00;101898.13;5034043;28;20053;-71
2022/01/02 00:24:01;;;;;;;32.67;19.50;;;;;;;-1.33;100.00;101897.44;5056067;28;20057;-71
2022/01/02 00:26:50;;;;;;;33.60;19.08;;;;;;;-1.35;100.00;101893.06;5059359;28;20491;-71
2022/01/02 00:29:40;;;;;;;33.03;19.02;;;;;;;-1.36;100.00;101896.75;5048595;28;20072;-71
2022/01/02 00:32:27;;;;;;;33.85;20.67;;;;;;;-1.17;100.00;101896.59;5046623;28;20048;-71
2022/01/02 00:35:14;;;;;;;31.92;19.77;;;;;;;-1.21;100.00;101901.47;5055117;28;20054;-71
2022/01/02 00:38:01;;;;;;;31.90;20.33;;;;;;;-1.26;100.00;101901.13;5032708;28;20053;-71
2022/01/02 00:40:54;;;;;;;31.15;18.52;;;;;;;-1.43;100.00;101890.38;5038952;28;20038;-70
2022/01/02 00:43:51;;;;;;;31.00;18.65;;;;;;;-1.65;100.00;101903.44;5035061;28;20041;-70
2022/01/02 00:46:47;;;;;;;30.50;19.17;;;;;;;-1.66;100.00;101901.78;5034643;28;20488;-71
2022/01/02 00:49:39;;;;;;;29.65;19.13;;;;;;;-1.46;100.00;101900.63;5033752;28;20500;-71
2022/01/02 00:52:27;;;;;;;28.77;18.05;;;;;;;-1.55;100.00;101902.47;5040911;28;20053;-70
2022/01/02 00:55:19;;;;;;;28.23;18.20;;;;;;;-1.57;100.00;101907.16;5041517;28;20053;-71
2022/01/02 00:58:16;;;;;;;28.58;17.60;;;;;;;-1.61;100.00;101909.34;5053736;28;20053;-71
2022/01/02 01:01:05;;;;;;;30.13;18.80;;;;;;;-1.60;100.00;101910.16;5039456;28;20053;-70
2022/01/02 01:03:53;;;;;;;29.42;17.50;;;;;;;-1.65;100.00;101919.56;5034339;28;20045;-70
2022/01/02 01:06:42;;;;;;;29.08;19.15;;;;;;;-1.63;100.00;101930.97;5034407;28;20057;-71
2022/01/02 01:09:30;;;;;;;28.88;18.13;;;;;;;-1.72;100.00;101925.78;5040700;28;20427;-70
2022/01/02 01:12:17;;;;;;;31.67;19.17;;;;;;;-1.65;100.00;101924.91;5039818;28;20045;-70
2022/01/02 01:15:06;;;;;;;27.38;17.50;;;;;;;-1.76;100.00;101922.56;5039687;28;20053;-71
2022/01/02 01:17:54;;;;;;;28.90;17.85;;;;;;;-1.74;100.00;101925.06;5032023;28;20484;-70
2022/01/02 01:20:43;;;;;;;30.25;18.42;;;;;;;-1.73;100.00;101935.66;5046050;28;20048;-71
2022/01/02 01:23:29;;;;;;;27.45;18.63;;;;;;;-1.67;100.00;101936.84;5055526;28;20040;-70
2022/01/02 01:26:21;;;;;;;31.25;18.13;;;;;;;-1.68;100.00;101924.41;5059954;28;20487;-71
2022/01/02 01:29:08;;;;;;;27.52;17.52;;;;;;;-1.72;100.00;101917.72;5053869;28;20045;-71
2022/01/02 01:31:54;;;;;;;27.92;17.65;;;;;;;-1.77;100.00;101915.50;5053784;28;20052;-70
2022/01/02 01:34:41;;;;;;;31.20;17.95;;;;;;;-1.77;100.00;101910.13;5053932;28;20049;-71
2022/01/02 01:37:27;;;;;;;25.55;17.25;;;;;;;-1.76;100.00;101909.16;5059373;28;20041;-71
2022/01/02 01:40:15;;;;;;;30.30;17.60;;;;;;;-1.76;100.00;101907.28;5053760;28;20049;-71
2022/01/02 01:43:03;;;;;;;29.92;17.73;;;;;;;-1.78;100.00;101903.09;5054039;28;20392;-71
2022/01/02 01:45:57;;;;;;;31.58;19.08;;;;;;;-1.73;100.00;101889.16;5059515;28;20396;-70
2022/01/02 01:48:52;;;;;;;25.20;17.23;;;;;;;-1.69;100.00;101879.78;5059233;28;20512;-71
2022/01/02 01:51:38;;;;;;;;;;;;;;;-1.76;100.00;101877.78;5056244;28;20041;-71
2022/01/02 01:54:25;;;;;;;31.02;18.90;;;;;;;-1.77;100.00;101881.47;5059319;28;19921;-71
2022/01/02 01:57:11;;;;;;;33.47;19.05;;;;;;;-1.57;100.00;101880.31;5059314;28;20057;-71
2022/01/02 01:59:59;;;;;;;40.33;22.20;;;;;;;-1.55;100.00;101880.97;5059267;28;20037;-71
2022/01/02 02:02:46;;;;;;;34.05;19.35;;;;;;;-1.56;100.00;101884.69;5059082;28;20053;-71
2022/01/02 02:05:35;;;;;;;38.63;20.58;;;;;;;-1.45;100.00;101886.19;5059188;28;20045;-70
2022/01/02 02:08:25;;;;;;;38.47;20.73;;;;;;;-1.49;100.00;101880.31;5059729;28;20037;-70
2022/01/02 02:11:12;;;;;;;32.47;20.20;;;;;;;-1.55;100.00;101876.47;5058562;28;20053;-71
2022/01/02 02:13:59;;;;;;;37.83;20.80;;;;;;;-1.62;100.00;101864.69;5049327;28;20057;-70
2022/01/02 02:16:46;;;;;;;40.55;20.02;;;;;;;-1.64;100.00;101878.31;5047563;28;20488;-70
2022/01/02 02:19:33;;;;;;;34.00;18.58;;;;;;;-1.62;100.00;101870.91;5045642;28;20049;-71
2022/01/02 02:22:19;;;;;;;34.83;19.92;;;;;;;-1.73;100.00;101870.38;5021427;28;20046;-70
2022/01/02 02:25:07;;;;;;;34.15;17.90;;;;;;;-1.69;100.00;101879.78;5038441;28;20639;-70
2022/01/02 02:28:02;;;;;;;35.85;20.88;;;;;;;-1.74;100.00;101879.44;5027469;28;20045;-70
2022/01/02 02:30:49;;;;;;;34.10;18.48;;;;;;;-1.80;100.00;101886.31;5039040;28;20046;-70
2022/01/02 02:33:35;;;;;;;36.97;20.23;;;;;;;-1.97;100.00;101894.34;5039101;28;20049;-70
2022/01/02 02:36:22;;;;;;;32.58;18.02;;;;;;;-2.00;100.00;101893.81;5032965;28;20050;-70
2022/01/02 02:39:08;;;;;;;28.25;18.08;;;;;;;-1.98;100.00;101898.03;5038017;28;20392;-70
2022/01/02 02:41:54;;;;;;;27.33;18.20;;;;;;;-2.04;100.00;101899.50;5038533;28;20484;-70
2022/01/02 02:44:41;;;;;;;29.98;18.75;;;;;;;-1.94;100.00;101895.84;5032513;28;20045;-70
2022/01/02 02:50:32;;;;;;;26.45;18.35;;;;;;;-2.01;100.00;101892.16;5038045;28;20400;-70
2022/01/02 02:53:18;;;;;;;32.03;20.25;;;;;;;-2.01;100.00;101887.59;5039396;28;20042;-71
2022/01/02 02:56:20;;;;;;;31.55;19.65;;;;;;;-1.98;100.00;101886.44;5037860;28;20045;-70
2022/01/02 02:59:08;;;;;;;28.48;18.17;;;;;;;-1.96;100.00;101890.66;5038025;28;20057;-70
2022/01/02 03:01:55;;;;;;;31.67;18.52;;;;;;;-1.90;100.00;101879.25;5028021;28;20045;-70
2022/01/02 03:04:43;;;;;;;28.88;19.30;;;;;;;-1.89;100.00;101886.28;5037924;28;20053;-70
2022/01/02 03:07:29;;;;;;;32.50;20.05;;;;;;;-1.84;100.00;101876.91;5037921;28;20516;-70
2022/01/02 03:10:16;;;;;;;33.92;19.75;;;;;;;-1.91;100.00;101890.16;5025239;28;20053;-70
2022/01/02 03:13:03;;;;;;;35.13;19.70;;;;;;;-1.76;100.00;101885.00;5038603;28;20505;-70
2022/01/02 03:15:50;;;;;;;30.55;20.05;;;;;;;-1.84;100.00;101898.38;5037182;28;20041;-70
2022/01/02 03:18:37;;;;;;;35.75;20.33;;;;;;;-1.84;100.00;101898.38;5032276;28;20046;-70
2022/01/02 03:21:26;;;;;;;36.50;21.35;;;;;;;-1.91;100.00;101887.50;5050156;28;20053;-70
2022/01/02 03:24:12;;;;;;;42.28;21.27;;;;;;;-1.95;100.00;101886.94;5043523;28;20049;-71
2022/01/02 03:26:58;;;;;;;33.13;19.60;;;;;;;-2.04;100.00;101874.53;5034659;28;20057;-71
2022/01/02 03:29:45;;;;;;;33.35;19.20;;;;;;;-1.99;100.00;101872.22;5031213;28;20046;-71
2022/01/02 03:32:31;;;;;;;29.42;18.75;;;;;;;-2.01;100.00;101876.06;5037652;28;20053;-71
2022/01/02 03:35:17;;;;;;;32.35;19.65;;;;;;;-1.97;100.00;101886.28;5037167;28;20045;-70
2022/01/02 03:38:05;;;;;;;30.63;19.25;;;;;;;-2.08;100.00;101875.84;5023347;28;20050;-70
2022/01/02 03:40:52;;;;;;;30.40;19.58;;;;;;;-2.04;100.00;101882.59;5037390;28;20060;-70
2022/01/02 03:43:38;;;;;;;32.53;19.48;;;;;;;-1.70;100.00;101878.97;5031821;28;20046;-71
2022/01/02 03:46:25;;;;;;;36.13;20.70;;;;;;;-1.58;100.00;101884.00;5034292;28;20509;-71
2022/01/02 03:49:13;;;;;;;34.08;19.92;;;;;;;-1.53;100.00;101871.75;5041184;28;20049;-70
2022/01/02 03:52:00;;;;;;;32.88;20.33;;;;;;;-1.62;100.00;101864.69;5034719;28;20049;-71
2022/01/02 03:54:46;;;;;;;37.38;21.10;;;;;;;-1.77;100.00;101868.03;5036044;28;20037;-71
2022/01/02 03:57:33;;;;;;;33.13;19.65;;;;;;;-1.98;100.00;101873.88;5041081;28;20092;-71
2022/01/02 04:00:20;;;;;;;37.55;19.77;;;;;;;-2.02;100.00;101872.50;5041686;28;20042;-71
2022/01/02 04:03:06;;;;;;;33.08;19.05;;;;;;;-2.16;100.00;101863.25;5041064;28;20042;-71
2022/01/02 04:05:53;;;;;;;33.58;19.40;;;;;;;-1.92;100.00;101858.94;5035517;28;20050;-71
2022/01/02 04:08:39;;;;;;;38.10;19.92;;;;;;;-1.91;100.00;101853.44;5041863;28;20057;-71
2022/01/02 04:11:25;;;;;;;35.47;21.40;;;;;;;-2.01;100.00;101855.41;5041727;28;20053;-71
2022/01/02 04:14:13;;;;;;;35.88;20.20;;;;;;;-2.09;100.00;101855.41;5034226;28;20049;-71
2022/01/02 04:16:59;;;;;;;33.92;19.92;;;;;;;-2.10;100.00;101846.50;5023480;28;20049;-71
2022/01/02 04:19:46;;;;;;;31.63;19.35;;;;;;;-2.23;100.00;101838.94;5041762;28;20045;-71
2022/01/02 04:22:35;;;;;;;32.70;19.80;;;;;;;-2.39;100.00;101831.69;5033511;28;20045;-71
2022/01/02 04:25:21;;;;;;;28.58;18.52;;;;;;;-2.44;100.00;101823.31;5060657;28;20053;-71
2022/01/02 04:28:07;;;;;;;30.90;18.30;;;;;;;-2.49;100.00;101821.09;5060852;28;20045;-71
2022/01/02 04:30:55;;;;;;;31.33;19.67;;;;;;;-2.48;100.00;101821.94;5060440;28;20056;-71
2022/01/02 04:33:41;;;;;;;34.40;20.55;;;;;;;-2.41;100.00;101816.78;5061661;28;20053;-71
2022/01/02 04:36:28;;;;;;;32.83;19.70;;;;;;;-2.38;100.00;101811.06;5048951;28;20050;-71
2022/01/02 04:39:14;;;;;;;34.22;20.67;;;;;;;-2.36;100.00;101796.50;5040177;28;20053;-71
2022/01/02 04:42:01;;;;;;;35.00;21.95;;;;;;;-2.29;100.00;101802.06;5068758;28;20042;-71
2022/01/02 04:44:47;;;;;;;29.73;18.70;;;;;;;-2.24;100.00;101797.03;5040707;28;20045;-72
2022/01/02 04:47:34;;;;;;;34.47;18.58;;;;;;;-2.16;100.00;101789.00;5037278;28;20057;-71
2022/01/02 04:50:21;;;;;;;29.45;18.35;;;;;;;-2.12;100.00;101789.50;5040110;28;20054;-71
2022/01/02 04:53:07;;;;;;;32.70;19.92;;;;;;;-2.10;100.00;101792.03;5040728;28;20049;-71
2022/01/02 04:55:53;;;;;;;30.52;18.60;;;;;;;-2.21;100.00;101799.38;5030293;28;20037;-71
2022/01/02 04:58:41;;;;;;;33.20;19.38;;;;;;;-2.24;100.00;101797.03;5039649;28;20057;-71
2022/01/02 05:01:28;;;;;;;26.52;18.20;;;;;;;-2.30;100.00;101803.03;5041275;28;20041;-71
2022/01/02 05:04:15;;;;;;;27.17;17.65;;;;;;;-2.40;100.00;101797.00;5040315;28;20037;-71
2022/01/02 05:07:02;;;;;;;29.13;18.27;;;;;;;-2.46;100.00;101803.84;5040109;28;20041;-71
2022/01/02 05:09:49;;;;;;;27.45;17.85;;;;;;;-2.44;100.00;101808.03;5037894;28;20045;-71
2022/01/02 05:12:38;;;;;;;30.08;18.05;;;;;;;-2.44;100.00;101805.34;5034295;28;20041;-71
2022/01/02 05:15:25;;;;;;;30.02;18.45;;;;;;;-2.44;100.00;101804.53;5038858;28;20037;-71
2022/01/02 05:18:12;;;;;;;27.30;17.88;;;;;;;-2.40;100.00;101797.00;5031012;28;20049;-71
2022/01/02 05:20:58;;;;;;;26.13;17.30;;;;;;;-2.39;100.00;101799.53;5044693;28;20049;-71
2022/01/02 05:23:44;;;;;;;27.33;18.25;;;;;;;-2.26;100.00;101795.53;5048179;28;20496;-71
2022/01/02 05:26:31;;;;;;;28.55;18.00;;;;;;;-2.28;100.00;101805.56;5054394;28;20049;-71
2022/01/02 05:29:17;;;;;;;24.33;16.60;;;;;;;-2.33;100.00;101800.69;5053944;28;20423;-71
2022/01/02 05:32:04;;;;;;;28.67;17.58;;;;;;;-2.34;100.00;101802.53;5058760;28;20510;-71
2022/01/02 05:34:50;;;;;;;25.23;17.55;;;;;;;-2.37;100.00;101793.97;5047476;28;20049;-71
2022/01/02 05:37:36;;;;;;;23.10;16.13;;;;;;;-2.39;100.00;101804.03;5054635;28;20037;-71
2022/01/02 05:40:25;;;;;;;25.42;16.05;;;;;;;-2.46;100.00;101802.00;5059605;28;20049;-71
2022/01/02 05:43:12;;;;;;;28.60;16.77;;;;;;;-2.54;100.00;101807.31;5039789;28;20041;-71
2022/01/02 05:46:03;;;;;;;44.60;17.30;;;;;;;-2.51;100.00;101806.16;5045442;28;20041;-71
2022/01/02 05:48:52;;;;;;;29.58;17.30;;;;;;;-2.54;100.00;101807.31;5052937;28;20500;-71
2022/01/02 05:51:40;;;;;;;29.60;16.08;;;;;;;-2.61;100.00;101796.44;5060187;28;20079;-71
2022/01/02 05:54:27;;;;;;;27.58;17.15;;;;;;;-2.65;100.00;101799.59;5059311;28;20049;-71
2022/01/02 05:57:13;;;;;;;26.70;16.95;;;;;;;-2.63;100.00;101797.59;5059501;28;20061;-71
2022/01/02 06:00:00;;;;;;;34.45;16.42;;;;;;;-2.54;100.00;101803.81;5059330;28;20053;-71
2022/01/02 06:02:48;;;;;;;32.58;17.13;;;;;;;-2.57;100.00;101802.31;5058453;28;20056;-71
2022/01/02 06:05:35;;;;;;;32.83;17.17;;;;;;;-2.64;100.00;101806.63;5058955;28;20423;-71
2022/01/02 06:08:22;;;;;;;28.08;17.00;;;;;;;-2.62;100.00;101812.66;5046124;28;20044;-71
2022/01/02 06:11:10;;;;;;;32.83;17.50;;;;;;;-2.57;100.00;101815.72;5058513;28;20049;-72
2022/01/02 06:13:56;;;;;;;32.00;17.25;;;;;;;-2.56;100.00;101809.34;5058649;28;20045;-71
2022/01/02 06:16:44;;;;;;;31.35;16.38;;;;;;;-2.56;100.00;101817.38;5058576;28;20045;-71
2022/01/02 06:19:31;;;;;;;25.33;15.38;;;;;;;-2.51;100.00;101816.88;5058791;28;20045;-71
2022/01/02 06:22:18;;;;;;;24.63;15.80;;;;;;;-2.46;100.00;101811.88;5057757;28;20049;-70
2022/01/02 06:25:05;;;;;;;29.00;17.63;;;;;;;-2.46;100.00;101810.06;5058428;28;20447;-71
2022/01/02 06:27:51;;;;;;;26.65;16.55;;;;;;;-2.62;100.00;101800.13;5052764;28;20041;-71
2022/01/02 06:30:40;;;;;;;24.90;16.02;;;;;;;-2.67;100.00;101785.50;5058267;28;20037;-71
2022/01/02 06:33:26;;;;;;;25.23;15.60;;;;;;;-2.65;100.00;101789.72;5052974;28;20056;-71
2022/01/02 06:36:12;;;;;;;26.10;16.77;;;;;;;-2.57;100.00;101791.59;5058586;28;20415;-71
2022/01/02 06:39:00;;;;;;;27.50;18.00;;;;;;;-2.57;100.00;101796.94;5043241;28;20204;-71
2022/01/02 06:41:47;;;;;;;26.55;16.13;;;;;;;-2.66;100.00;101796.06;5057378;28;20053;-71
2022/01/02 06:44:34;;;;;;;27.13;16.35;;;;;;;-2.75;100.00;101787.16;5059164;28;20037;-71
2022/01/02 06:47:20;;;;;;;27.10;16.15;;;;;;;-2.70;100.00;101792.88;5058872;28;20425;-71
2022/01/02 06:50:12;;;;;;;24.30;16.08;;;;;;;-2.68;100.00;101791.88;5052292;28;20053;-71
2022/01/02 06:52:59;;;;;;;26.63;16.88;;;;;;;-2.75;100.00;101792.53;5057836;28;20052;-71
2022/01/02 06:55:45;;;;;;;27.42;17.27;;;;;;;-2.74;100.00;101806.78;5052224;28;20049;-71
2022/01/02 06:58:32;;;;;;;27.08;17.75;;;;;;;-2.62;100.00;101804.63;5057966;28;20052;-71
2022/01/02 07:01:18;;;;;;;30.33;17.90;;;;;;;-2.72;100.00;101805.59;5057788;28;20053;-71
2022/01/02 07:04:05;;;;;;;30.02;18.15;;;;;;;-2.79;100.00;101799.19;5048448;28;20412;-72
2022/01/02 07:06:51;;;;;;;34.13;17.63;;;;;;;-2.93;100.00;101819.38;5037025;28;20045;-71
2022/01/02 07:09:40;;;;;;;31.70;19.10;;;;;;;-2.94;100.00;101822.25;5036066;28;20493;-72
2022/01/02 07:12:27;;;;;;;32.80;18.08;;;;;;;-2.81;100.00;101814.59;5038166;28;20053;-71
2022/01/02 07:15:13;;;;;;;30.60;17.98;;;;;;;-2.77;100.00;101815.97;5038520;28;20041;-72
2022/01/02 07:18:00;;;;;;;35.35;18.92;;;;;;;-2.84;100.00;101823.78;5038357;28;20049;-71
2022/01/02 07:20:47;;;;;;;36.28;19.85;;;;;;;-2.75;100.00;101827.34;5037444;28;20045;-71
2022/01/02 07:23:33;;;;;;;35.30;19.55;;;;;;;-2.64;100.00;101820.84;5053146;28;20434;-72
2022/01/02 07:26:19;;;;;;;32.42;19.05;;;;;;;-2.59;100.00;101815.03;5058632;28;20496;-71
2022/01/02 07:29:05;;;;;;;31.48;17.60;;;;;;;-2.68;100.00;101816.84;5037035;28;20045;-71
2022/01/02 07:31:52;;;;;;;26.45;16.88;;;;;;;-2.51;100.00;101812.38;5042877;28;20091;-70
2022/01/02 07:34:38;;;;;;;29.88;17.25;;;;;;;-2.49;100.00;101807.69;5041750;28;20049;-71
2022/01/02 07:37:24;;;;;;;33.45;17.83;;;;;;;-2.55;100.00;101811.00;5044581;28;20583;-71
2022/01/02 07:40:11;;;;;;;29.30;18.08;;;;;;;-2.43;100.00;101798.16;5040816;28;20057;-71
2022/01/02 07:42:57;;;;;;;30.10;17.85;;;;;;;-2.38;100.00;101786.94;5038147;28;20053;-70
2022/01/02 07:45:49;;;;;;;29.48;18.63;;;;;;;-2.23;100.00;101788.00;5042247;28;20045;-71
2022/01/02 07:48:36;;;;;;;30.85;18.15;;;;;;;-2.13;100.00;101792.34;5026648;28;20050;-71
2022/01/02 07:51:22;;;;;;;26.60;17.00;;;;;;;-2.20;100.00;101790.31;5041009;28;20057;-71
2022/01/02 07:54:08;;;;;;;31.65;18.25;;;;;;;-2.16;100.00;101783.63;5040310;28;20400;-71
2022/01/02 07:56:57;;;;;;;33.90;18.20;;;;;;;-2.10;100.00;101782.13;5025768;28;20041;-71
2022/01/02 07:59:44;;;;;;;32.55;19.02;;;;;;;-2.13;100.00;101789.66;5039091;28;20492;-71
2022/01/02 08:02:57;;;;;;;31.63;19.10;;;;;;;-2.11;100.00;101791.19;5030624;28;20045;-71
2022/01/02 08:05:43;;;;;;;37.17;19.75;;;;;;;-2.04;100.00;101800.25;5035698;28;20049;-71
2022/01/02 08:08:29;;;;;;;38.20;20.20;;;;;;;-1.82;100.00;101808.66;5036228;28;20050;-71
2022/01/02 08:11:16;;;;;;;36.15;18.83;;;;;;;-1.69;100.00;101805.47;5034355;28;20045;-72
2022/01/02 08:14:23;;;;;;;36.05;18.73;;;;;;;-1.24;100.00;101805.94;5030335;28;20053;-77
2022/01/02 08:17:09;;;;;;;36.92;22.00;;;;;;;-1.05;100.00;101811.09;5018009;28;20054;-77
2022/01/02 08:19:56;;;;;;;36.97;21.73;;;;;;;-0.65;100.00;101803.91;5035554;28;20053;-71
2022/01/02 08:22:42;;;;;;;34.65;19.77;;;;;;;-1.09;100.00;101805.22;5039096;28;20041;-71
2022/01/02 08:25:29;;;;;;;37.90;20.48;;;;;;;-1.59;100.00;101805.31;5047821;28;20053;-71
2022/01/02 08:28:15;;;;;;;35.55;19.77;;;;;;;-1.69;100.00;101804.63;5057736;28;20061;-71
2022/01/02 08:31:02;;;;;;;37.72;19.55;;;;;;;-1.58;100.00;101803.44;5056573;28;20048;-71
2022/01/02 08:33:48;;;;;;;38.28;20.55;;;;;;;-1.59;100.00;101797.25;5060668;28;20060;-71
2022/01/02 08:36:35;;;;;;;33.47;19.73;;;;;;;-1.50;100.00;101803.47;5061512;28;20053;-71
2022/01/02 08:39:22;;;;;;;40.65;21.02;;;;;;;-1.43;100.00;101804.44;5061068;28;20056;-71
2022/01/02 08:42:09;;;;;;;32.80;19.55;;;;;;;-1.44;100.00;101804.63;5061344;28;20491;-71
2022/01/02 08:44:55;;;;;;;36.28;20.50;;;;;;;-1.31;100.00;101812.16;5061313;28;20053;-71
2022/01/02 08:47:41;;;;;;;35.50;20.73;;;;;;;-1.28;100.00;101812.66;5060928;28;20404;-71
2022/01/02 08:50:28;;;;;;;41.55;21.15;;;;;;;-1.22;100.00;101822.72;5060873;28;20049;-71
2022/01/02 08:53:15;;;;;;;34.08;19.88;;;;;;;-1.13;100.00;101826.22;5060905;28;20049;-71
2022/01/02 08:56:01;;;;;;;41.42;20.90;;;;;;;-1.18;100.00;101822.41;5061084;28;20049;-71
2022/01/02 08:58:48;;;;;;;47.90;21.65;;;;;;;-1.15;100.00;101806.75;5054164;28;20057;-71
2022/01/02 09:01:34;;;;;;;38.35;20.88;;;;;;;-1.06;100.00;101821.03;5060796;28;20056;-71
2022/01/02 09:04:21;;;;;;;32.38;19.67;;;;;;;-1.05;100.00;101827.22;5060722;28;20045;-71
2022/01/02 09:07:07;;;;;;;43.17;22.10;;;;;;;-0.81;100.00;101818.25;5054027;28;20049;-71
2022/01/02 09:09:53;;;;;;;41.03;20.05;;;;;;;-0.94;100.00;101818.78;5053904;28;20052;-71
2022/01/02 09:12:40;;;;;;;36.72;22.00;;;;;;;-1.02;100.00;101826.88;5054201;28;20067;-71
2022/01/02 09:15:26;;;;;;;40.22;21.33;;;;;;;-0.90;100.00;101827.34;5060634;28;20392;-71
2022/01/02 09:18:13;;;;;;;35.30;21.40;;;;;;;-0.72;100.00;101819.91;5060531;28;20500;-71
2022/01/02 09:21:03;;;;;;;46.47;22.10;;;;;;;-0.76;100.00;101826.66;5060372;28;20049;-71
2022/01/02 09:23:49;;;;;;;40.75;22.52;;;;;;;-0.64;100.00;101818.19;5055379;28;20037;-71
2022/01/02 09:26:35;;;;;;;41.75;21.50;;;;;;;-0.59;100.00;101822.03;5060482;28;20037;-71
2022/01/02 09:29:22;;;;;;;37.63;22.75;;;;;;;-0.41;100.00;101815.56;5053652;28;20427;-71
2022/01/02 09:32:10;;;;;;;40.53;21.98;;;;;;;-0.39;100.00;101824.28;5060395;28;20534;-71
2022/01/02 09:34:56;;;;;;;43.65;22.25;;;;;;;-0.48;100.00;101828.91;5053975;28;20512;-71
2022/01/02 09:37:47;;;;;;;41.22;22.52;;;;;;;-0.34;100.00;101832.66;5060625;28;20502;-71
2022/01/02 09:40:35;;;;;;;46.80;23.02;;;;;;;-0.29;100.00;101838.38;5060200;28;20049;-71
2022/01/02 09:43:21;;;;;;;33.22;22.50;;;;;;;-0.20;100.00;101828.41;5053080;28;20427;-71
2022/01/02 09:46:07;;;;;;;43.72;23.65;;;;;;;0.02;100.00;101815.16;5059921;28;20045;-71
2022/01/02 09:48:55;;;;;;;45.28;22.02;;;;;;;0.07;100.00;101814.59;5059972;28;20052;-71
2022/01/02 09:51:41;;;;;;;59.15;23.08;;;;;;;-0.10;100.00;101809.34;5059809;28;20056;-71
2022/01/02 09:54:27;;;;;;;46.47;24.67;;;;;;;-0.02;100.00;101806.59;5059693;28;20057;-71
2022/01/02 09:56:55;;;;;;;52.08;24.95;;;;;;;0.13;100.00;101806.66;5052944;28;20057;-71
2022/01/02 09:59:23;;;;;;;45.17;23.40;;;;;;;0.37;100.00;101798.56;5052727;28;20049;-71
2022/01/02 10:01:52;;;;;;;45.88;24.52;;;;;;;0.30;100.00;101801.16;5052802;28;20060;-71
2022/01/02 10:04:41;;;;;;;44.03;22.73;;;;;;;0.40;100.00;101799.03;5051204;28;20057;-71
2022/01/02 10:07:31;;;;;;;39.45;22.40;;;;;;;0.50;100.00;101793.38;5053106;28;20057;-71
2022/01/02 10:10:09;;;;;;;42.67;22.23;;;;;;;0.43;100.00;101788.94;5052573;28;20491;-71
2022/01/02 10:12:37;;;;;;;44.85;22.90;;;;;;;0.60;100.00;101785.06;5052433;28;20057;-71
2022/01/02 10:15:21;;;;;;;42.55;22.85;;;;;;;0.76;100.00;101792.16;5052779;28;20040;-71
2022/01/02 10:18:24;;;;;;;43.67;23.00;;;;;;;0.83;100.00;101788.72;5052722;28;20496;-71
2022/01/02 10:20:52;;;;;;;40.03;21.77;;;;;;;0.84;100.00;101788.53;5030140;28;20068;-71
2022/01/02 10:23:21;;;;;;;46.92;23.73;;;;;;;0.91;100.00;101788.59;5052026;28;20057;-71
2022/01/02 10:26:00;;;;;;;37.05;22.27;;;;;;;1.05;100.00;101801.28;5052333;28;20384;-71
2022/01/02 10:28:32;;;;;;;40.22;22.40;;;;;;;0.97;100.00;101801.34;5052079;28;20059;-71
2022/01/02 10:31:07;;;;;;;43.45;23.50;;;;;;;1.16;100.00;101799.09;5025384;28;20045;-72
2022/01/02 10:33:56;;;;;;;40.00;22.88;;;;;;;0.95;100.00;101800.69;5052204;28;20059;-71
2022/01/02 10:36:30;;;;;;;40.80;22.63;;;;;;;0.92;100.00;101791.13;5030135;28;20053;-71
2022/01/02 10:39:11;;;;;;;40.42;22.77;;;;;;;0.83;100.00;101791.41;5052356;28;20045;-72
2022/01/02 10:41:47;;;;;;;49.13;22.15;;;;;;;1.00;100.00;101776.72;5052481;28;20060;-71
2022/01/02 10:44:21;;;;;;;38.40;20.48;;;;;;;0.90;100.00;101777.00;5052056;28;20055;-72
2022/01/02 10:47:21;;;;;;;37.60;21.38;;;;;;;1.12;100.00;101771.69;5052628;28;20392;-71
2022/01/02 10:49:53;;;;;;;48.53;22.73;;;;;;;0.94;100.00;101766.69;5027374;28;20052;-71
2022/01/02 10:52:23;;;;;;;44.83;23.30;;;;;;;0.93;100.00;101763.16;5051645;28;20052;-72
2022/01/02 10:54:51;;;;;;;41.47;23.33;;;;;;;1.25;100.00;101762.94;5024703;28;20052;-72
2022/01/02 10:57:19;;;;;;;36.83;21.63;;;;;;;1.43;100.00;101746.34;5052144;28;20053;-72
2022/01/02 10:59:47;;;;;;;41.67;22.88;;;;;;;1.46;100.00;101747.81;5051621;28;20048;-72
2022/01/02 11:02:16;;;;;;;37.78;23.17;;;;;;;1.55;100.00;101746.69;5051861;28;20040;-72
2022/01/02 11:04:52;;;;;;;40.67;23.88;;;;;;;1.63;100.00;101742.19;5051739;28;20052;-72
2022/01/02 11:07:22;;;;;;;40.10;23.73;;;;;;;1.59;100.00;101729.09;5051755;28;20049;-72
2022/01/02 11:09:55;;;;;;;44.15;24.45;;;;;;;1.55;100.00;101743.13;5051828;28;20381;-72
2022/01/02 11:12:26;;;;;;;40.38;22.08;;;;;;;1.44;100.00;101742.63;5051390;28;20056;-72
2022/01/02 11:14:55;;;;;;;39.65;22.52;;;;;;;1.37;100.00;101730.91;5051532;28;20052;-72
2022/01/02 11:17:23;;;;;;;44.38;24.20;;;;;;;1.46;100.00;101740.56;5051580;28;20056;-72
2022/01/02 11:19:52;;;;;;;44.25;24.60;;;;;;;1.48;100.00;101743.91;5051100;28;20051;-72
2022/01/02 11:22:35;;;;;;;41.30;23.70;;;;;;;1.71;100.00;101731.28;5050815;28;20041;-71
2022/01/02 11:25:14;;;;;;;42.47;24.05;;;;;;;1.82;100.00;101716.44;5051577;28;20102;-72
2022/01/02 11:27:47;;;;;;;41.85;23.80;;;;;;;1.82;100.00;101714.59;5051496;28;20049;-72
2022/01/02 11:30:30;;;;;;;44.92;25.83;;;;;;;2.07;100.00;101716.03;5050521;28;20045;-71
2022/01/02 11:33:13;;;;;;;48.20;25.73;;;;;;;1.94;100.00;101701.41;5028730;28;20041;-72
2022/01/02 11:35:43;;;;;;;42.38;23.83;;;;;;;2.08;100.00;101712.31;5051656;28;20052;-72
2022/01/02 11:38:11;;;;;;;43.42;26.13;;;;;;;2.30;100.00;101707.72;5050963;28;20052;-72
2022/01/02 11:40:57;;;;;;;41.67;24.88;;;;;;;2.25;100.00;101699.38;5051368;28;20048;-72
2022/01/02 11:43:38;;;;;;;45.08;25.60;;;;;;;2.05;100.00;101686.53;5051387;28;20064;-72
2022/01/02 11:46:24;;;;;;;39.53;24.40;;;;;;;2.27;100.00;101695.44;5051436;28;20045;-72
2022/01/02 11:49:05;;;;;;;41.85;25.25;;;;;;;2.33;100.00;101688.41;5051557;28;20049;-72
2022/01/02 11:51:50;;;;;;;52.72;30.20;;;;;;;2.35;100.00;101696.31;5026125;28;20049;-72
2022/01/02 11:54:31;;;;;;;41.95;25.25;;;;;;;2.34;100.00;101684.66;5050911;28;20057;-72
2022/01/02 11:57:03;;;;;;;43.90;25.60;;;;;;;2.45;100.00;101674.34;5051320;28;20045;-72
2022/01/02 11:59:44;;;;;;;44.40;24.88;;;;;;;2.57;100.00;101685.41;5051069;28;20056;-72
2022/01/02 12:02:17;;;;;;;38.97;23.50;;;;;;;2.55;100.00;101677.53;5051043;28;20504;-72
2022/01/02 12:04:58;;;;;;;45.08;24.80;;;;;;;2.41;100.00;101669.31;5051335;28;20045;-72
2022/01/02 12:10:17;;;;;;;46.47;25.25;;;;;;;2.30;100.00;101666.34;5054461;28;20391;-72
2022/01/02 12:12:57;;;;;;;44.50;25.10;;;;;;;2.39;100.00;101655.19;5055009;28;20056;-72
2022/01/02 12:15:45;;;;;;;42.28;25.25;;;;;;;2.43;100.00;101661.03;5031263;28;20057;-72
2022/01/02 12:18:19;;;;;;;47.80;26.95;;;;;;;2.53;100.00;101652.56;5046687;28;20041;-72
2022/01/02 12:20:50;;;;;;;50.10;27.23;;;;;;;2.80;100.00;101640.00;5054738;28;20045;-72
2022/01/02 12:23:33;;;;;;;44.33;25.85;;;;;;;2.54;100.00;101646.13;5054491;28;20041;-71
2022/01/02 12:26:03;;;;;;;46.83;26.33;;;;;;;2.57;100.00;101640.31;5029483;28;20056;-72
2022/01/02 12:28:46;;;;;;;49.50;27.20;;;;;;;2.76;100.00;101629.81;5054751;28;20052;-72
2022/01/02 12:31:17;;;;;;;44.55;25.08;;;;;;;2.60;100.00;101634.53;5037461;28;20046;-72